Time;durP1;ratioP1;P1;durP2;ratioP2;P2;SDS_P1;SDS_P2;PMS_P1;PMS_P2;Temp;Humidity;BMP_temperature;BMP_pressure;BME280_temperature;BME280_humidity;BME280_pressure;Samples;Min_cycle;Max_cycle;Signal;HPM_P1;HPM_P2
2021/11/20 00:00:23;;;;;;;44.93;23.83;;;;;;;4.35;92.08;98194.57;1675943;85;21465;-87
2021/11/20 00:02:52;;;;;;;44.05;23.90;;;;;;;4.35;91.96;98190.21;1653533;86;21017;-86
2021/11/20 00:05:24;;;;;;;44.10;23.75;;;;;;;4.36;91.94;98193.69;1668298;84;21652;-87
2021/11/20 00:07:51;;;;;;;43.75;23.57;;;;;;;4.36;91.91;98194.58;1683117;84;21069;-87
2021/11/20 00:10:23;;;;;;;42.45;23.27;;;;;;;4.35;91.97;98186.70;1681586;84;21036;-87
2021/11/20 00:12:51;;;;;;;42.75;23.00;;;;;;;4.34;92.01;98181.91;1673744;84;21040;-87
2021/11/20 00:15:23;;;;;;;43.92;23.30;;;;;;;4.37;91.94;98190.22;1682301;85;21061;-87
2021/11/20 00:17:49;;;;;;;43.92;23.57;;;;;;;4.37;91.78;98192.84;1674639;84;21427;-87
2021/11/20 00:20:19;;;;;;;46.23;25.88;;;;;;;4.36;91.98;98191.95;1657656;85;21021;-87
2021/11/20 00:22:49;;;;;;;42.35;23.40;;;;;;;4.34;92.41;98181.91;1682751;85;21470;-87
2021/11/20 00:25:30;;;;;;;43.58;23.70;;;;;;;4.35;92.21;98188.02;1700442;84;21481;-87
2021/11/20 00:28:00;;;;;;;47.83;26.00;;;;;;;4.40;92.50;98182.77;1686508;84;21072;-87
2021/11/20 00:30:41;;;;;;;42.98;24.90;;;;;;;4.42;92.57;98180.58;1672186;85;21077;-87
2021/11/20 00:33:09;;;;;;;39.98;23.60;;;;;;;4.44;91.98;98181.90;1665672;84;21046;-87
2021/11/20 00:35:41;;;;;;;42.20;24.05;;;;;;;4.46;91.97;98179.70;1626571;85;21018;-87
2021/11/20 00:38:11;;;;;;;;;;;;;;;4.52;92.03;98181.88;1688147;84;21009;-87
2021/11/20 00:40:46;;;;;;;40.75;22.20;;;;;;;4.55;92.07;98187.98;1677166;84;20120;-87
2021/11/20 00:43:15;;;;;;;36.20;21.62;;;;;;;4.59;92.17;98183.17;1671192;85;21079;-87
2021/11/20 00:45:43;;;;;;;34.60;20.68;;;;;;;4.62;92.24;98181.83;1676055;85;21084;-87
2021/11/20 00:48:12;;;;;;;38.85;21.12;;;;;;;4.68;92.22;98178.75;1678666;85;20998;-87
2021/11/20 00:50:44;;;;;;;36.40;20.85;;;;;;;4.68;92.20;98174.81;1679163;84;21002;-86
2021/11/20 00:53:12;;;;;;;38.67;21.23;;;;;;;4.71;92.62;98180.06;1669039;86;21443;-86
2021/11/20 00:55:40;;;;;;;35.90;19.87;;;;;;;4.80;92.69;98174.79;1668975;86;21427;-86
2021/11/20 00:58:08;;;;;;;33.08;19.65;;;;;;;4.83;92.54;98171.28;1674128;84;21601;-86
2021/11/20 01:00:44;;;;;;;34.50;20.48;;;;;;;4.85;92.54;98167.77;1673664;85;21014;-86
2021/11/20 01:03:12;;;;;;;36.85;20.92;;;;;;;4.91;92.81;98181.33;1674369;85;21045;-87
2021/11/20 01:05:40;;;;;;;36.53;21.48;;;;;;;4.92;92.71;98178.23;1683093;85;21523;-87
2021/11/20 01:08:09;;;;;;;36.48;21.05;;;;;;;4.94;92.75;98172.56;1683378;84;20974;-87
2021/11/20 01:10:42;;;;;;;35.92;20.40;;;;;;;4.89;92.60;98180.44;1677115;84;20962;-86
2021/11/20 01:13:11;;;;;;;36.15;21.00;;;;;;;4.91;93.06;98177.39;1649692;85;21005;-86
2021/11/20 01:15:46;;;;;;;33.33;21.17;;;;;;;4.95;93.18;98172.56;1658401;86;21586;-87
2021/11/20 01:18:20;;;;;;;34.27;19.82;;;;;;;5.00;92.73;98164.65;1666659;83;21042;-87
2021/11/20 01:20:49;;;;;;;39.73;19.85;;;;;;;4.93;92.02;98168.16;1670224;86;21090;-87
2021/11/20 01:23:19;;;;;;;36.05;20.88;;;;;;;4.88;92.05;98165.14;1675465;85;21009;-87
2021/11/20 01:25:48;;;;;;;33.48;19.10;;;;;;;4.82;92.00;98159.89;1678546;85;20990;-87
2021/11/20 01:28:23;;;;;;;31.10;18.77;;;;;;;4.79;91.94;98158.61;1684496;84;20994;-86
2021/11/20 01:30:57;;;;;;;33.67;20.52;;;;;;;4.76;91.79;98152.05;1687088;84;21578;-87
2021/11/20 01:33:29;;;;;;;33.02;19.57;;;;;;;4.72;91.78;98155.13;1688970;84;21537;-87
2021/11/20 01:35:56;;;;;;;34.18;19.57;;;;;;;4.70;91.93;98141.57;1685626;85;21034;-86
2021/11/20 01:38:24;;;;;;;37.05;20.68;;;;;;;4.67;92.12;98141.57;1677296;84;21033;-87
2021/11/20 01:40:53;;;;;;;33.60;20.57;;;;;;;4.68;92.17;98140.69;1638978;87;21058;-86
2021/11/20 01:43:24;;;;;;;35.38;21.33;;;;;;;4.66;91.95;98143.77;1640035;87;21015;-87
2021/11/20 01:46:05;;;;;;;37.03;20.77;;;;;;;4.65;91.73;98145.97;1640507;87;21038;-87
2021/11/20 01:48:54;;;;;;;35.70;19.55;;;;;;;4.59;91.67;98142.48;1671670;84;21029;-87
2021/11/20 01:51:30;;;;;;;37.45;20.52;;;;;;;4.58;91.76;98139.86;1663540;84;21053;-87
2021/11/20 01:54:35;;;;;;;39.23;21.93;;;;;;;4.54;91.88;98132.86;1641297;87;21022;-87
2021/11/20 01:58:00;;;;;;;36.80;20.85;;;;;;;4.51;92.20;98128.92;1653119;83;20954;-88
2021/11/20 02:00:46;;;;;;;36.58;21.23;;;;;;;4.48;92.26;98121.94;1687161;84;21423;-86
2021/11/20 02:03:31;;;;;;;37.53;22.10;;;;;;;4.47;92.21;98121.08;1649873;86;21428;-87
2021/11/20 02:06:19;;;;;;;40.17;22.95;;;;;;;4.46;92.17;98118.45;1668670;86;21029;-87
2021/11/20 02:09:15;;;;;;;36.58;21.40;;;;;;;4.46;92.32;98114.09;1635747;84;20998;-87
2021/11/20 02:12:04;;;;;;;36.15;20.55;;;;;;;4.45;92.21;98097.03;1620297;85;21089;-87
2021/11/20 02:14:32;;;;;;;37.23;20.60;;;;;;;4.43;92.22;98102.70;1671585;85;20981;-87
2021/11/20 02:17:08;;;;;;;38.20;21.35;;;;;;;4.42;92.27;98095.30;1683632;84;21073;-87
2021/11/20 02:19:41;;;;;;;35.65;20.30;;;;;;;4.41;92.35;98092.24;1678018;84;21078;-88
2021/11/20 02:22:25;;;;;;;34.75;21.35;;;;;;;4.41;92.32;98081.74;1682718;85;21064;-87
2021/11/20 02:24:51;;;;;;;38.58;21.85;;;;;;;4.39;92.23;98074.30;1682758;84;21088;-87
2021/11/20 02:27:41;;;;;;;39.23;21.48;;;;;;;4.40;92.26;98076.03;1685740;84;20997;-87
2021/11/20 02:30:34;;;;;;;41.48;22.67;;;;;;;4.39;92.43;98077.38;1690456;84;21487;-86
2021/11/20 02:33:09;;;;;;;39.20;21.70;;;;;;;4.38;92.15;98081.74;1690888;84;21049;-87
2021/11/20 02:35:46;;;;;;;37.35;21.48;;;;;;;4.36;92.11;98084.80;1687669;84;21406;-87
2021/11/20 02:38:21;;;;;;;42.45;23.18;;;;;;;4.33;91.88;98079.58;1673137;84;21559;-87
2021/11/20 02:40:50;;;;;;;41.60;22.58;;;;;;;4.35;91.87;98092.23;1661286;85;21587;-87
2021/11/20 02:43:18;;;;;;;45.45;23.83;;;;;;;4.32;92.07;98087.02;1675973;86;21546;-87
2021/11/20 02:46:06;;;;;;;47.93;24.40;;;;;;;4.34;92.35;98094.01;1668980;85;21029;-87
2021/11/20 02:48:33;;;;;;;57.05;28.20;;;;;;;4.32;92.50;98090.50;1683542;85;21000;-87
2021/11/20 02:51:15;;;;;;;56.48;26.45;;;;;;;4.31;92.70;98092.69;1669178;85;21422;-87
2021/11/20 02:53:50;;;;;;;59.40;25.90;;;;;;;4.31;93.23;98089.19;1667472;86;21334;-87
2021/11/20 02:56:22;;;;;;;60.08;28.23;;;;;;;4.33;92.81;98092.23;1655869;85;21454;-86
2021/11/20 02:58:52;;;;;;;59.23;27.80;;;;;;;4.35;92.41;98089.61;1668482;85;21065;-87
2021/11/20 03:01:30;;;;;;;55.17;26.17;;;;;;;4.38;92.37;98093.55;1669471;85;21081;-87
2021/11/20 03:03:57;;;;;;;56.55;27.05;;;;;;;4.40;92.35;98086.53;1653495;86;21003;-87
2021/11/20 03:06:26;;;;;;;54.33;27.22;;;;;;;4.43;93.16;98082.59;1670056;85;20975;-88
2021/11/20 03:08:53;;;;;;;52.08;26.48;;;;;;;4.49;93.22;98090.90;1665516;85;21014;-87
2021/11/20 03:11:21;;;;;;;51.48;26.23;;;;;;;4.54;93.18;98084.31;1668695;86;21550;-87
2021/11/20 03:13:54;;;;;;;58.25;25.57;;;;;;;4.64;93.43;98088.64;1640350;86;20978;-87
2021/11/20 03:16:45;;;;;;;58.45;26.45;;;;;;;4.69;93.24;98079.45;1628163;87;21435;-87
2021/11/20 03:19:14;;;;;;;55.70;26.07;;;;;;;4.72;92.81;98085.55;1666382;84;21104;-86
2021/11/20 03:21:46;;;;;;;57.75;26.90;;;;;;;4.73;92.88;98089.91;1681758;84;21025;-86
2021/11/20 03:24:16;;;;;;;55.55;26.70;;;;;;;4.76;93.13;98085.09;1673595;85;21073;-86
2021/11/20 03:26:45;;;;;;;56.40;26.75;;;;;;;4.80;92.81;98085.52;1671380;85;20998;-88
2021/11/20 03:29:14;;;;;;;59.05;27.20;;;;;;;4.85;93.05;98081.11;1682275;85;21116;-85
2021/11/20 03:31:43;;;;;;;58.90;27.17;;;;;;;4.88;92.97;98074.97;1665448;85;21046;-85
2021/11/20 03:34:11;;;;;;;58.20;27.37;;;;;;;4.89;92.90;98074.96;1667172;84;21537;-86
2021/11/20 03:36:39;;;;;;;63.80;27.93;;;;;;;4.95;93.14;98081.06;1640384;87;21077;-86
2021/11/20 03:39:09;;;;;;;63.98;27.98;;;;;;;4.97;93.24;98085.85;1680046;84;21006;-86
2021/11/20 03:41:39;;;;;;;67.20;29.80;;;;;;;4.95;92.85;98080.63;1685812;85;21018;-86
2021/11/20 03:44:07;;;;;;;60.67;27.60;;;;;;;4.93;92.65;98073.61;1684349;84;21066;-86
2021/11/20 03:46:36;;;;;;;64.47;29.55;;;;;;;4.91;92.64;98074.08;1683866;85;21451;-86
2021/11/20 03:49:05;;;;;;;53.90;25.85;;;;;;;4.86;92.42;98069.72;1655911;83;21001;-86
2021/11/20 03:51:34;;;;;;;56.75;27.62;;;;;;;4.82;92.45;98063.19;1659727;84;21029;-87
2021/11/20 03:54:02;;;;;;;59.23;26.82;;;;;;;4.82;92.50;98063.19;1680963;84;21554;-84
2021/11/20 03:56:33;;;;;;;63.73;26.90;;;;;;;4.79;92.11;98068.02;1678253;85;21049;-86
2021/11/20 03:59:03;;;;;;;62.25;28.45;;;;;;;4.74;92.19;98061.92;1669281;84;21108;-86
2021/11/20 04:01:32;;;;;;;62.40;27.67;;;;;;;4.70;92.18;98062.81;1672293;85;21045;-86
2021/11/20 04:04:00;;;;;;;56.58;27.42;;;;;;;4.66;92.08;98067.64;1690953;84;20989;-86
2021/11/20 04:06:28;;;;;;;61.08;29.15;;;;;;;4.64;92.00;98072.03;1690466;85;21088;-86
2021/11/20 04:09:12;;;;;;;60.20;28.70;;;;;;;4.60;92.14;98068.09;1624057;86;21044;-86
2021/11/20 04:11:35;;;;;;;63.23;29.00;;;;;;;4.59;92.74;98072.03;1619893;88;21014;-86
2021/11/20 04:14:04;;;;;;;61.15;27.87;;;;;;;4.58;92.92;98076.44;1624187;87;21015;-86
2021/11/20 04:16:33;;;;;;;62.67;27.93;;;;;;;4.59;92.69;98080.80;1621986;88;21133;-85
2021/11/20 04:19:03;;;;;;;64.40;30.90;;;;;;;4.57;92.94;98075.13;1635150;85;21492;-86
2021/11/20 04:21:31;;;;;;;72.72;32.60;;;;;;;4.56;92.61;98074.23;1680271;84;21019;-86
2021/11/20 04:23:59;;;;;;;69.80;32.15;;;;;;;4.54;92.28;98064.63;1682831;85;21049;-86
2021/11/20 04:26:45;;;;;;;68.52;29.75;;;;;;;4.53;92.45;98065.05;1683040;85;21073;-86
2021/11/20 04:29:13;;;;;;;63.48;29.65;;;;;;;4.51;92.64;98063.31;1670366;84;21395;-86
2021/11/20 04:31:40;;;;;;;70.00;30.95;;;;;;;4.51;92.81;98062.00;1668951;86;21096;-86
2021/11/20 04:34:06;;;;;;;65.57;30.57;;;;;;;4.51;92.85;98064.20;1673759;85;21289;-86
2021/11/20 04:36:33;;;;;;;72.25;31.17;;;;;;;4.49;92.76;98072.07;1671418;85;21511;-86
2021/11/20 04:39:02;;;;;;;69.00;32.17;;;;;;;4.49;92.93;98064.20;1675289;84;21030;-86
2021/11/20 04:41:29;;;;;;;70.12;30.68;;;;;;;4.48;92.84;98069.44;1683778;84;21062;-86
2021/11/20 04:43:55;;;;;;;64.25;29.12;;;;;;;4.48;92.88;98065.08;1681494;85;20994;-87
2021/11/20 04:46:25;;;;;;;64.32;29.75;;;;;;;4.47;92.67;98057.20;1675213;85;21060;-86
2021/11/20 04:48:53;;;;;;;67.17;30.55;;;;;;;4.46;92.53;98065.97;1670058;85;21001;-86
2021/11/20 04:51:25;;;;;;;72.27;31.73;;;;;;;4.43;92.86;98075.16;1664318;85;21015;-86
2021/11/20 04:53:53;;;;;;;73.65;31.85;;;;;;;4.43;92.77;98077.34;1669970;85;21085;-86
2021/11/20 04:56:24;;;;;;;74.22;32.83;;;;;;;4.44;92.71;98079.55;1669657;86;21073;-86
2021/11/20 04:58:51;;;;;;;72.08;31.82;;;;;;;4.44;92.70;98082.17;1666775;84;21060;-86
2021/11/20 05:01:22;;;;;;;74.58;31.73;;;;;;;4.42;92.62;98076.03;1669813;86;21057;-86
2021/11/20 05:03:53;;;;;;;68.25;31.93;;;;;;;4.40;92.48;98076.50;1669405;85;21050;-86
2021/11/20 05:06:23;;;;;;;76.92;32.58;;;;;;;4.38;92.48;98081.74;1658673;85;21006;-87
2021/11/20 05:08:51;;;;;;;72.53;30.52;;;;;;;4.38;92.95;98075.19;1670028;85;21025;-86
2021/11/20 05:11:19;;;;;;;71.40;31.25;;;;;;;4.40;93.00;98076.03;1678127;85;21454;-86
2021/11/20 05:13:48;;;;;;;71.72;31.80;;;;;;;4.39;93.23;98072.98;1689760;84;21486;-87
2021/11/20 05:16:16;;;;;;;72.03;30.82;;;;;;;4.40;93.01;98075.19;1694760;83;20989;-86
2021/11/20 05:18:43;;;;;;;68.83;30.95;;;;;;;4.40;92.88;98085.68;1683504;84;20982;-86
2021/11/20 05:21:17;;;;;;;67.78;31.80;;;;;;;4.40;92.69;98080.43;1679566;85;21045;-86
2021/11/20 05:23:47;;;;;;;75.87;31.33;;;;;;;4.41;92.92;98084.80;1679910;85;21478;-86
2021/11/20 05:26:16;;;;;;;75.22;30.82;;;;;;;4.42;92.76;98083.91;1672290;85;20990;-86
2021/11/20 05:28:54;;;;;;;71.50;30.65;;;;;;;4.47;92.75;98088.70;1684637;84;21485;-86
2021/11/20 05:31:17;;;;;;;67.50;30.52;;;;;;;4.52;92.61;98087.39;1693625;84;21018;-86
2021/11/20 05:33:50;;;;;;;60.40;28.90;;;;;;;4.55;92.60;98092.61;1671944;85;21034;-86
2021/11/20 05:36:25;;;;;;;56.33;28.80;;;;;;;4.58;92.55;98092.61;1661707;86;21021;-86
2021/11/20 05:38:48;;;;;;;61.80;28.75;;;;;;;4.62;92.61;98092.58;1687597;84;20989;-86
2021/11/20 05:41:15;;;;;;;61.30;28.70;;;;;;;4.66;92.82;98102.65;1675664;84;21097;-86
2021/11/20 05:43:45;;;;;;;51.00;24.80;;;;;;;4.73;92.94;98101.73;1669952;86;21443;-86
2021/11/20 05:46:18;;;;;;;50.48;25.72;;;;;;;4.78;92.92;98106.09;1668622;86;21006;-86
2021/11/20 05:48:47;;;;;;;55.38;26.77;;;;;;;4.86;93.64;98096.44;1680326;85;20974;-86
2021/11/20 05:51:15;;;;;;;49.75;25.12;;;;;;;4.91;93.18;98102.97;1683881;85;21042;-86
2021/11/20 05:53:44;;;;;;;53.50;25.60;;;;;;;4.96;93.18;98110.37;1646763;85;21022;-86
2021/11/20 05:56:11;;;;;;;46.20;23.55;;;;;;;5.01;93.31;98113.85;1669760;86;21117;-86
2021/11/20 05:58:41;;;;;;;56.20;25.60;;;;;;;5.05;93.11;98114.70;1672350;85;21006;-86
2021/11/20 06:01:12;;;;;;;50.73;25.48;;;;;;;5.09;93.26;98119.95;1650527;86;21046;-86
2021/11/20 06:03:39;;;;;;;56.28;27.32;;;;;;;5.14;93.24;98116.85;1669908;85;21076;-86
2021/11/20 06:06:06;;;;;;;49.58;24.05;;;;;;;5.19;93.15;98109.39;1669703;86;21058;-86
2021/11/20 06:08:37;;;;;;;46.13;24.10;;;;;;;5.22;93.22;98115.92;1682458;85;20970;-87
2021/11/20 06:11:08;;;;;;;46.13;23.80;;;;;;;5.22;92.96;98109.35;1673455;85;21497;-86
2021/11/20 06:13:36;;;;;;;46.00;24.87;;;;;;;5.22;93.11;98108.92;1675665;84;21002;-86
2021/11/20 06:16:05;;;;;;;52.08;26.50;;;;;;;5.21;92.77;98108.92;1658422;86;21037;-87
2021/11/20 06:18:33;;;;;;;50.60;25.80;;;;;;;5.13;92.75;98102.41;1655068;85;21042;-86
2021/11/20 06:21:05;;;;;;;50.12;24.55;;;;;;;5.10;92.77;98098.05;1650748;85;21002;-85
2021/11/20 06:23:35;;;;;;;47.38;23.60;;;;;;;5.08;93.07;98105.08;1665858;85;21041;-86
2021/11/20 06:26:06;;;;;;;53.13;26.25;;;;;;;5.02;92.72;98112.53;1672153;85;20988;-86
2021/11/20 06:28:33;;;;;;;47.75;25.72;;;;;;;4.96;93.11;98111.27;1678577;85;21038;-86
2021/11/20 06:31:01;;;;;;;48.02;24.30;;;;;;;4.94;93.18;98121.34;1678512;85;21036;-86
2021/11/20 06:33:29;;;;;;;40.30;22.37;;;;;;;4.93;93.04;98120.89;1683631;85;20983;-86
2021/11/20 06:36:06;;;;;;;41.70;24.10;;;;;;;4.89;93.14;98115.67;1655465;84;21025;-86
2021/11/20 06:38:39;;;;;;;45.43;23.05;;;;;;;4.89;93.11;98116.98;1675552;84;21102;-86
2021/11/20 06:41:07;;;;;;;44.00;22.82;;;;;;;4.91;93.07;98120.03;1678005;85;21009;-86
2021/11/20 06:43:34;;;;;;;41.73;21.73;;;;;;;4.94;93.13;98121.34;1652555;85;21451;-86
2021/11/20 06:46:06;;;;;;;39.18;22.22;;;;;;;4.97;92.80;98112.12;1669458;86;21018;-86
2021/11/20 06:48:33;;;;;;;39.03;21.07;;;;;;;4.98;92.91;98113.89;1675800;85;21006;-86
2021/11/20 06:51:20;;;;;;;38.38;20.95;;;;;;;4.98;92.68;98125.25;1669096;85;20982;-87
2021/11/20 06:53:49;;;;;;;40.78;20.97;;;;;;;5.00;92.91;98124.82;1642148;85;21053;-87
2021/11/20 06:56:42;;;;;;;;;;;;;;;5.02;92.61;98125.67;1662078;84;21411;-87
2021/11/20 07:01:53;;;;;;;40.30;21.27;;;;;;;5.04;92.52;98130.92;1668771;86;20990;-86
2021/11/20 07:04:28;;;;;;;38.78;21.73;;;;;;;5.05;92.58;98136.60;1669919;85;21105;-86
2021/11/20 07:07:00;;;;;;;41.85;21.97;;;;;;;5.06;92.77;98130.46;1676620;84;20994;-86
2021/11/20 07:09:26;;;;;;;42.03;22.32;;;;;;;5.10;92.68;98141.39;1669860;84;21022;-86
2021/11/20 07:11:53;;;;;;;39.50;23.07;;;;;;;5.15;92.75;98128.25;1650778;85;20990;-86
2021/11/20 07:14:19;;;;;;;38.70;22.25;;;;;;;5.18;92.63;98136.09;1679491;85;21033;-86
2021/11/20 07:16:47;;;;;;;36.70;20.80;;;;;;;5.22;92.61;98143.51;1674854;84;21435;-86
2021/11/20 07:19:15;;;;;;;39.13;22.32;;;;;;;5.24;92.39;98139.99;1670086;84;20981;-85
2021/11/20 07:21:53;;;;;;;40.67;23.62;;;;;;;5.26;92.58;98137.36;1670103;85;21038;-85
2021/11/20 07:24:22;;;;;;;43.33;23.75;;;;;;;5.28;92.80;98137.78;1668226;85;21463;-85
2021/11/20 07:26:51;;;;;;;39.60;22.75;;;;;;;5.31;92.80;98151.34;1670346;85;21042;-86
2021/11/20 07:29:19;;;;;;;43.48;22.85;;;;;;;5.33;92.48;98148.71;1681941;84;20981;-86
2021/11/20 07:31:56;;;;;;;37.28;22.85;;;;;;;5.35;92.23;98156.17;1671461;85;21049;-86
2021/11/20 07:34:25;;;;;;;33.13;19.92;;;;;;;5.35;92.55;98146.51;1688158;85;20994;-86
2021/11/20 07:36:52;;;;;;;31.82;19.07;;;;;;;5.36;92.19;98150.88;1686282;85;21108;-86
2021/11/20 07:39:19;;;;;;;33.20;18.65;;;;;;;5.37;92.12;98153.96;1681176;84;20958;-86
2021/11/20 07:41:47;;;;;;;30.55;18.52;;;;;;;5.37;92.19;98158.33;1678866;85;21022;-86
2021/11/20 07:44:15;;;;;;;32.53;19.25;;;;;;;5.38;92.30;98162.27;1659802;85;21014;-86
2021/11/20 07:46:44;;;;;;;31.95;18.10;;;;;;;5.40;92.36;98167.52;1669320;86;21025;-86
2021/11/20 07:49:11;;;;;;;28.80;17.80;;;;;;;5.42;92.26;98167.06;1680888;84;21517;-86
2021/11/20 07:51:40;;;;;;;32.40;18.65;;;;;;;5.44;92.29;98164.43;1659929;85;21017;-86
2021/11/20 07:54:09;;;;;;;34.08;18.87;;;;;;;5.44;91.91;98171.85;1704413;83;21185;-87
2021/11/20 07:56:42;;;;;;;33.08;19.85;;;;;;;5.45;91.98;98167.48;1718069;83;21009;-87
2021/11/20 07:59:14;;;;;;;31.48;18.62;;;;;;;5.47;91.91;98169.64;1673425;85;21434;-88
2021/11/20 08:01:43;;;;;;;32.35;19.37;;;;;;;5.50;92.05;98171.84;1648749;87;21027;-86
2021/11/20 08:04:14;;;;;;;37.85;20.75;;;;;;;5.53;92.07;98182.78;1648727;87;21161;-87
2021/11/20 08:06:43;;;;;;;37.10;20.23;;;;;;;5.53;91.73;98182.78;1648356;86;21010;-87
2021/11/20 08:09:30;;;;;;;39.83;21.60;;;;;;;5.58;91.93;98184.94;1690849;83;21105;-87
2021/11/20 08:11:58;;;;;;;37.13;20.97;;;;;;;5.63;91.73;98179.20;1677451;86;21411;-87
2021/11/20 08:14:27;;;;;;;34.48;19.20;;;;;;;5.67;91.72;98182.25;1677080;84;21446;-87
2021/11/20 08:17:03;;;;;;;33.50;19.17;;;;;;;5.73;91.58;98181.31;1670891;85;21403;-80
2021/11/20 08:19:38;;;;;;;35.43;20.65;;;;;;;5.78;91.54;98185.23;1658074;85;21463;-81
2021/11/20 08:22:06;;;;;;;30.32;18.85;;;;;;;5.77;91.07;98171.66;1606776;84;21005;-81
2021/11/20 08:24:35;;;;;;;36.73;19.85;;;;;;;5.86;91.58;98180.77;1677462;86;21033;-80
2021/11/20 08:27:07;;;;;;;30.88;18.35;;;;;;;5.98;91.60;98188.16;1677411;86;20986;-80
2021/11/20 08:29:37;;;;;;;32.20;19.07;;;;;;;5.98;90.64;98186.38;1698529;84;21514;-79
2021/11/20 08:32:05;;;;;;;27.37;17.65;;;;;;;6.04;90.60;98182.45;1702629;84;21034;-79
2021/11/20 08:34:45;;;;;;;29.18;17.62;;;;;;;6.07;90.11;98204.77;1684556;84;21430;-79
2021/11/20 08:37:15;;;;;;;29.60;17.75;;;;;;;6.12;90.69;98187.64;1669535;85;21490;-80
2021/11/20 08:39:46;;;;;;;27.52;16.82;;;;;;;6.20;91.03;98189.74;1660668;84;21002;-79
2021/11/20 08:42:15;;;;;;;31.52;19.62;;;;;;;6.26;91.31;98190.14;1681125;85;21017;-80
2021/11/20 08:44:43;;;;;;;27.27;16.20;;;;;;;6.32;91.05;98199.75;1686428;85;21065;-80
2021/11/20 08:47:14;;;;;;;30.52;17.57;;;;;;;6.39;91.32;98192.21;1680416;84;21041;-81
2021/11/20 08:49:43;;;;;;;33.85;19.77;;;;;;;6.40;90.28;98187.37;1700232;84;21093;-81
2021/11/20 08:52:12;;;;;;;29.07;17.87;;;;;;;6.44;90.76;98185.60;1704231;84;21418;-81
2021/11/20 08:54:39;;;;;;;30.00;18.10;;;;;;;6.47;90.62;98187.75;1701948;83;21021;-80
2021/11/20 08:57:06;;;;;;;26.65;17.32;;;;;;;6.47;90.12;98186.44;1696635;85;21093;-80
2021/11/20 08:59:37;;;;;;;27.80;17.27;;;;;;;6.51;90.29;98186.42;1687067;83;21025;-80
2021/11/20 09:02:17;;;;;;;27.45;16.52;;;;;;;6.49;90.11;98191.70;1696720;84;21025;-81
2021/11/20 09:05:21;;;;;;;28.38;15.93;;;;;;;6.49;89.89;98187.75;1692989;84;21036;-81
2021/11/20 09:08:03;;;;;;;34.00;19.67;;;;;;;6.41;89.52;98177.72;1680795;83;20977;-81
2021/11/20 09:10:38;;;;;;;30.37;20.65;;;;;;;6.43;90.00;98182.52;1691357;83;20989;-81
2021/11/20 09:13:19;;;;;;;34.48;22.77;;;;;;;6.44;89.92;98180.34;1682317;85;21066;-81
2021/11/20 09:16:00;;;;;;;39.23;25.55;;;;;;;6.50;89.82;98189.48;1683809;84;21002;-81
2021/11/20 09:18:30;;;;;;;35.73;23.20;;;;;;;6.50;90.04;98182.91;1684681;83;20954;-81
2021/11/20 09:21:05;;;;;;;32.65;22.35;;;;;;;6.46;90.25;98178.12;1654820;86;21064;-81
2021/11/20 09:23:39;;;;;;;35.70;21.77;;;;;;;6.46;90.05;98187.33;1653093;86;20997;-80
2021/11/20 09:26:09;;;;;;;37.80;22.30;;;;;;;6.45;89.96;98173.71;1652505;87;21494;-81
2021/11/20 09:28:39;;;;;;;31.12;19.27;;;;;;;6.42;90.23;98176.40;1668583;83;20997;-80
2021/11/20 09:31:09;;;;;;;32.78;19.57;;;;;;;6.42;90.87;98178.14;1690326;84;21470;-80
2021/11/20 09:33:38;;;;;;;32.08;18.95;;;;;;;6.42;90.56;98172.45;1685244;85;21088;-80
2021/11/20 09:36:08;;;;;;;30.05;18.07;;;;;;;6.41;90.87;98176.41;1694062;85;21013;-80
2021/11/20 09:38:43;;;;;;;28.47;17.05;;;;;;;6.39;90.96;98176.88;1692394;83;21009;-80
2021/11/20 09:41:24;;;;;;;29.48;17.67;;;;;;;6.33;92.10;98172.53;1676356;85;20992;-80
2021/11/20 09:43:57;;;;;;;28.62;16.25;;;;;;;6.37;91.89;98166.36;1668639;86;21040;-80
2021/11/20 09:46:33;;;;;;;26.48;17.12;;;;;;;6.42;91.75;98163.66;1668913;85;21001;-80
2021/11/20 09:49:05;;;;;;;27.40;16.32;;;;;;;6.46;92.00;98161.44;1682548;83;21001;-81
2021/11/20 09:51:41;;;;;;;31.85;17.17;;;;;;;6.49;91.79;98161.42;1696262;84;21017;-81
2021/11/20 09:54:23;;;;;;;29.60;17.57;;;;;;;6.59;91.66;98161.74;1680721;84;21551;-82
2021/11/20 09:56:57;;;;;;;28.65;17.32;;;;;;;6.64;91.79;98168.27;1670707;86;21102;-81
2021/11/20 09:59:32;;;;;;;26.80;16.12;;;;;;;6.71;91.67;98157.22;1669956;84;21437;-81
2021/11/20 10:02:13;;;;;;;28.32;17.73;;;;;;;6.71;91.62;98159.85;1658032;85;21119;-81
2021/11/20 10:04:52;;;;;;;28.23;16.77;;;;;;;6.77;91.78;98151.02;1639239;86;21043;-81
2021/11/20 10:07:27;;;;;;;27.87;16.87;;;;;;;6.84;91.46;98143.02;1616676;87;21456;-81
2021/11/20 10:10:24;;;;;;;27.95;15.68;;;;;;;6.90;91.28;98143.84;1677192;85;21069;-79
2021/11/20 10:13:21;;;;;;;26.90;16.05;;;;;;;6.91;91.13;98150.84;1672982;85;21057;-80
2021/11/20 10:16:13;;;;;;;28.25;15.80;;;;;;;6.84;90.96;98153.56;1670276;86;21018;-79
2021/11/20 10:19:10;;;;;;;30.25;16.07;;;;;;;6.85;90.70;98156.61;1673889;85;20966;-80
2021/11/20 10:21:56;;;;;;;26.68;16.80;;;;;;;6.84;90.93;98151.36;1671505;84;21010;-80
2021/11/20 10:24:46;;;;;;;28.50;16.15;;;;;;;6.86;90.76;98150.91;1655412;86;21434;-80
2021/11/20 10:27:47;;;;;;;30.08;16.95;;;;;;;6.85;90.37;98154.45;1636074;86;21049;-81
2021/11/20 10:30:28;;;;;;;34.23;18.02;;;;;;;6.79;90.42;98147.91;1678113;84;20978;-81
2021/11/20 10:33:12;;;;;;;33.13;19.12;;;;;;;6.75;90.77;98152.34;1668280;85;21006;-81
2021/11/20 10:35:50;;;;;;;36.17;18.62;;;;;;;6.73;91.09;98148.87;1650936;86;21431;-81
2021/11/20 10:38:24;;;;;;;33.13;18.65;;;;;;;6.71;91.04;98151.52;1666487;85;21030;-82
2021/11/20 10:41:02;;;;;;;36.73;18.25;;;;;;;6.70;91.42;98151.09;1659623;85;20970;-82
2021/11/20 10:43:49;;;;;;;29.15;16.23;;;;;;;6.73;90.79;98164.22;1682120;85;21058;-81
2021/11/20 10:46:27;;;;;;;29.20;16.25;;;;;;;6.73;90.71;98152.36;1669975;85;20960;-82
2021/11/20 10:49:33;;;;;;;31.42;16.62;;;;;;;6.74;90.35;98140.08;1668364;84;20990;-81
2021/11/20 10:52:57;;;;;;;31.40;17.23;;;;;;;6.77;90.47;98132.58;1683892;85;21018;-81
2021/11/20 10:55:49;;;;;;;32.78;17.82;;;;;;;6.88;90.24;98141.22;1671201;84;21067;-81
2021/11/20 10:58:29;;;;;;;29.27;18.00;;;;;;;6.96;90.25;98137.16;1672094;84;21074;-81
2021/11/20 11:01:36;;;;;;;29.77;17.07;;;;;;;7.06;90.03;98132.20;1689144;84;20978;-81
2021/11/20 11:04:16;;;;;;;30.43;16.80;;;;;;;7.15;89.67;98129.02;1645129;87;21077;-80
2021/11/20 11:07:25;;;;;;;28.98;16.55;;;;;;;7.29;89.83;98129.70;1642539;85;21062;-81
2021/11/20 11:10:01;;;;;;;31.50;17.62;;;;;;;7.38;89.10;98128.27;1660912;84;21046;-80
2021/11/20 11:13:03;;;;;;;31.70;17.80;;;;;;;7.50;88.96;98124.57;1674846;86;21459;-81
2021/11/20 11:15:41;;;;;;;29.72;17.92;;;;;;;7.61;88.87;98120.46;1673448;85;20999;-80
2021/11/20 11:18:57;;;;;;;31.23;19.27;;;;;;;7.70;88.29;98114.59;1671285;85;20985;-81
2021/11/20 11:21:55;;;;;;;31.17;19.35;;;;;;;7.74;88.15;98120.25;1671060;85;21125;-81
2021/11/20 11:24:44;;;;;;;32.33;18.55;;;;;;;7.79;87.37;98118.41;1670139;84;20990;-80
2021/11/20 11:27:30;;;;;;;31.60;19.55;;;;;;;7.84;87.05;98111.75;1675208;84;21384;-80
2021/11/20 11:30:19;;;;;;;31.68;19.65;;;;;;;7.93;86.89;98115.52;1675044;85;21004;-80
2021/11/20 11:32:47;;;;;;;33.63;19.25;;;;;;;8.03;86.69;98122.86;1676574;84;20980;-80
2021/11/20 11:35:22;;;;;;;35.38;20.60;;;;;;;8.08;86.08;98109.56;1681655;84;20962;-80
2021/11/20 11:38:29;;;;;;;30.92;20.35;;;;;;;8.16;85.94;98108.55;1675323;84;21077;-80
2021/11/20 11:41:01;;;;;;;62.67;32.38;;;;;;;8.26;85.87;98105.28;1678435;84;22082;-80
2021/11/20 11:43:52;;;;;;;36.17;19.65;;;;;;;8.43;85.53;98097.03;1678386;84;21010;-80
2021/11/20 11:46:35;;;;;;;33.70;20.10;;;;;;;8.60;85.49;98098.97;1656145;85;21001;-80
2021/11/20 11:49:32;;;;;;;34.98;20.45;;;;;;;8.79;85.51;98095.48;1660760;84;21021;-81
2021/11/20 11:52:26;;;;;;;34.00;20.77;;;;;;;8.91;84.74;98101.85;1641523;87;20990;-81
2021/11/20 11:55:13;;;;;;;;;;;;;;;9.00;84.22;98092.84;1675169;85;21451;-80
2021/11/20 11:58:16;;;;;;;33.63;21.07;;;;;;;9.14;84.49;98090.36;1664301;85;20172;-81
2021/11/20 12:00:57;;;;;;;32.70;20.40;;;;;;;9.30;84.20;98086.92;1654405;85;21022;-81
2021/11/20 12:03:32;;;;;;;33.73;21.35;;;;;;;9.44;83.14;98082.19;1641434;87;21112;-81